sensor_id;sensor_type;location;lat;lon;timestamp;temperature;humidity
52555;DHT22;38455;52.710;6.502;2022-11-03T00:01:48;11.00;99.90
52555;DHT22;38455;52.710;6.502;2022-11-03T00:04:17;11.10;99.90
52555;DHT22;38455;52.710;6.502;2022-11-03T00:06:44;11.00;99.90
52555;DHT22;38455;52.710;6.502;2022-11-03T00:09:12;11.00;99.90
52555;DHT22;38455;52.710;6.502;2022-11-03T00:11:39;11.00;99.90
52555;DHT22;38455;52.710;6.502;2022-11-03T00:14:06;11.00;99.90
52555;DHT22;38455;52.710;6.502;2022-11-03T00:16:32;11.00;99.90
52555;DHT22;38455;52.710;6.502;2022-11-03T00:18:58;11.00;99.90
52555;DHT22;38455;52.710;6.502;2022-11-03T00:21:23;10.90;99.90
52555;DHT22;38455;52.710;6.502;2022-11-03T00:23:49;11.00;99.90
52555;DHT22;38455;52.710;6.502;2022-11-03T00:26:26;11.00;99.90
52555;DHT22;38455;52.710;6.502;2022-11-03T00:28:55;11.00;99.90
52555;DHT22;38455;52.710;6.502;2022-11-03T00:31:25;11.00;99.90
52555;DHT22;38455;52.710;6.502;2022-11-03T00:33:51;11.00;99.90
52555;DHT22;38455;52.710;6.502;2022-11-03T00:36:24;10.90;99.90
52555;DHT22;38455;52.710;6.502;2022-11-03T00:38:50;10.90;99.90
52555;DHT22;38455;52.710;6.502;2022-11-03T00:41:17;10.90;99.90
52555;DHT22;38455;52.710;6.502;2022-11-03T00:43:42;10.80;99.90
52555;DHT22;38455;52.710;6.502;2022-11-03T00:46:09;10.80;99.90
52555;DHT22;38455;52.710;6.502;2022-11-03T00:48:35;10.70;99.90
52555;DHT22;38455;52.710;6.502;2022-11-03T00:51:12;10.70;99.90
52555;DHT22;38455;52.710;6.502;2022-11-03T00:53:39;10.60;99.90
52555;DHT22;38455;52.710;6.502;2022-11-03T00:56:06;10.60;99.90
52555;DHT22;38455;52.710;6.502;2022-11-03T00:58:32;10.50;99.90
52555;DHT22;38455;52.710;6.502;2022-11-03T01:01:20;10.50;99.90
52555;DHT22;38455;52.710;6.502;2022-11-03T01:03:48;10.50;99.90
52555;DHT22;38455;52.710;6.502;2022-11-03T01:06:34;10.30;99.90
52555;DHT22;38455;52.710;6.502;2022-11-03T01:12:03;10.30;99.90
52555;DHT22;38455;52.710;6.502;2022-11-03T01:17:00;10.30;99.90
52555;DHT22;38455;52.710;6.502;2022-11-03T01:19:26;10.30;99.90
52555;DHT22;38455;52.710;6.502;2022-11-03T01:21:52;10.20;99.90
52555;DHT22;38455;52.710;6.502;2022-11-03T01:24:18;10.30;99.90
52555;DHT22;38455;52.710;6.502;2022-11-03T01:26:44;10.20;99.90
52555;DHT22;38455;52.710;6.502;2022-11-03T01:29:10;10.20;99.90
52555;DHT22;38455;52.710;6.502;2022-11-03T01:31:35;10.20;99.90
52555;DHT22;38455;52.710;6.502;2022-11-03T01:34:01;10.30;99.90
52555;DHT22;38455;52.710;6.502;2022-11-03T01:36:27;10.20;99.90
52555;DHT22;38455;52.710;6.502;2022-11-03T01:38:54;10.30;99.90
52555;DHT22;38455;52.710;6.502;2022-11-03T01:41:22;10.30;99.90
52555;DHT22;38455;52.710;6.502;2022-11-03T01:46:41;10.30;99.90
52555;DHT22;38455;52.710;6.502;2022-11-03T01:51:58;10.30;99.90
52555;DHT22;38455;52.710;6.502;2022-11-03T01:54:27;10.30;99.90
52555;DHT22;38455;52.710;6.502;2022-11-03T01:56:54;10.30;99.90
52555;DHT22;38455;52.710;6.502;2022-11-03T01:59:22;10.30;99.90
52555;DHT22;38455;52.710;6.502;2022-11-03T02:01:48;10.30;99.90
52555;DHT22;38455;52.710;6.502;2022-11-03T02:04:20;10.30;99.90
52555;DHT22;38455;52.710;6.502;2022-11-03T02:06:51;10.40;99.90
52555;DHT22;38455;52.710;6.502;2022-11-03T02:09:19;10.40;99.90
52555;DHT22;38455;52.710;6.502;2022-11-03T02:11:45;10.30;99.90
52555;DHT22;38455;52.710;6.502;2022-11-03T02:14:29;10.40;99.90
52555;DHT22;38455;52.710;6.502;2022-11-03T02:16:59;10.40;99.90
52555;DHT22;38455;52.710;6.502;2022-11-03T02:19:40;10.40;99.90
52555;DHT22;38455;52.710;6.502;2022-11-03T02:22:43;10.40;99.90
52555;DHT22;38455;52.710;6.502;2022-11-03T02:28:02;10.40;99.90
52555;DHT22;38455;52.710;6.502;2022-11-03T02:30:37;10.40;99.90
52555;DHT22;38455;52.710;6.502;2022-11-03T02:36:05;10.50;99.90
52555;DHT22;38455;52.710;6.502;2022-11-03T02:38:39;10.50;99.90
52555;DHT22;38455;52.710;6.502;2022-11-03T02:41:06;10.50;99.90
52555;DHT22;38455;52.710;6.502;2022-11-03T02:43:33;10.50;99.90
52555;DHT22;38455;52.710;6.502;2022-11-03T02:45:59;10.50;99.90
52555;DHT22;38455;52.710;6.502;2022-11-03T02:48:26;10.50;99.90
52555;DHT22;38455;52.710;6.502;2022-11-03T02:50:53;10.50;99.90
52555;DHT22;38455;52.710;6.502;2022-11-03T02:53:19;10.50;99.90
52555;DHT22;38455;52.710;6.502;2022-11-03T03:03:17;10.50;99.90
52555;DHT22;38455;52.710;6.502;2022-11-03T03:05:47;10.50;99.90
52555;DHT22;38455;52.710;6.502;2022-11-03T03:08:14;10.50;99.90
52555;DHT22;38455;52.710;6.502;2022-11-03T03:10:43;10.40;99.90
52555;DHT22;38455;52.710;6.502;2022-11-03T03:13:13;10.40;99.90
52555;DHT22;38455;52.710;6.502;2022-11-03T03:21:22;10.30;99.90
52555;DHT22;38455;52.710;6.502;2022-11-03T03:24:04;10.40;99.90
52555;DHT22;38455;52.710;6.502;2022-11-03T03:26:36;10.30;99.90
52555;DHT22;38455;52.710;6.502;2022-11-03T03:31:37;10.30;99.90
52555;DHT22;38455;52.710;6.502;2022-11-03T03:34:04;10.30;99.90
52555;DHT22;38455;52.710;6.502;2022-11-03T03:36:31;10.30;99.90
52555;DHT22;38455;52.710;6.502;2022-11-03T03:39:01;10.20;99.90
52555;DHT22;38455;52.710;6.502;2022-11-03T03:41:28;10.30;99.90
52555;DHT22;38455;52.710;6.502;2022-11-03T03:44:01;10.30;99.90
52555;DHT22;38455;52.710;6.502;2022-11-03T03:46:35;10.30;99.90
52555;DHT22;38455;52.710;6.502;2022-11-03T03:49:02;10.30;99.90
52555;DHT22;38455;52.710;6.502;2022-11-03T03:51:29;10.30;99.90
52555;DHT22;38455;52.710;6.502;2022-11-03T03:53:55;10.30;99.90
52555;DHT22;38455;52.710;6.502;2022-11-03T03:56:52;10.30;99.90
52555;DHT22;38455;52.710;6.502;2022-11-03T03:59:19;10.30;99.90
52555;DHT22;38455;52.710;6.502;2022-11-03T04:01:44;10.20;99.90
52555;DHT22;38455;52.710;6.502;2022-11-03T04:04:10;10.20;99.90
52555;DHT22;38455;52.710;6.502;2022-11-03T04:06:35;10.20;99.90
52555;DHT22;38455;52.710;6.502;2022-11-03T04:09:01;10.20;99.90
52555;DHT22;38455;52.710;6.502;2022-11-03T04:11:27;10.20;99.90
52555;DHT22;38455;52.710;6.502;2022-11-03T04:14:22;10.20;99.90
52555;DHT22;38455;52.710;6.502;2022-11-03T04:17:24;10.20;99.90
52555;DHT22;38455;52.710;6.502;2022-11-03T04:20:11;10.20;99.90
52555;DHT22;38455;52.710;6.502;2022-11-03T04:22:56;10.20;99.90
52555;DHT22;38455;52.710;6.502;2022-11-03T04:25:22;10.20;99.90
52555;DHT22;38455;52.710;6.502;2022-11-03T04:27:47;10.20;99.90
52555;DHT22;38455;52.710;6.502;2022-11-03T04:30:18;10.20;99.90
52555;DHT22;38455;52.710;6.502;2022-11-03T04:32:46;10.30;99.90
52555;DHT22;38455;52.710;6.502;2022-11-03T04:35:30;10.30;99.90
52555;DHT22;38455;52.710;6.502;2022-11-03T04:40:55;10.40;99.90
52555;DHT22;38455;52.710;6.502;2022-11-03T04:43:32;10.40;99.90
52555;DHT22;38455;52.710;6.502;2022-11-03T04:45:59;10.50;99.90
52555;DHT22;38455;52.710;6.502;2022-11-03T04:48:26;10.50;99.90
52555;DHT22;38455;52.710;6.502;2022-11-03T04:50:55;10.50;99.90
52555;DHT22;38455;52.710;6.502;2022-11-03T04:53:23;10.60;99.90
52555;DHT22;38455;52.710;6.502;2022-11-03T04:55:51;10.60;99.90
52555;DHT22;38455;52.710;6.502;2022-11-03T04:58:34;10.70;99.90
52555;DHT22;38455;52.710;6.502;2022-11-03T05:01:01;10.60;99.90
52555;DHT22;38455;52.710;6.502;2022-11-03T05:03:35;10.70;99.90
52555;DHT22;38455;52.710;6.502;2022-11-03T05:06:09;10.70;99.90
52555;DHT22;38455;52.710;6.502;2022-11-03T05:08:36;10.70;99.90
52555;DHT22;38455;52.710;6.502;2022-11-03T05:11:52;10.70;99.90
52555;DHT22;38455;52.710;6.502;2022-11-03T05:13:53;10.70;99.90
52555;DHT22;38455;52.710;6.502;2022-11-03T05:16:21;10.70;99.90
52555;DHT22;38455;52.710;6.502;2022-11-03T05:18:49;10.70;99.90
52555;DHT22;38455;52.710;6.502;2022-11-03T05:21:17;10.70;99.90
52555;DHT22;38455;52.710;6.502;2022-11-03T05:23:46;10.70;99.90
52555;DHT22;38455;52.710;6.502;2022-11-03T05:26:23;10.70;99.90
52555;DHT22;38455;52.710;6.502;2022-11-03T05:28:54;10.70;99.90
52555;DHT22;38455;52.710;6.502;2022-11-03T05:31:31;10.70;99.90
52555;DHT22;38455;52.710;6.502;2022-11-03T05:34:00;10.70;99.90
52555;DHT22;38455;52.710;6.502;2022-11-03T05:36:29;10.70;99.90
52555;DHT22;38455;52.710;6.502;2022-11-03T05:38:59;10.60;99.90
52555;DHT22;38455;52.710;6.502;2022-11-03T05:41:27;10.60;99.90
52555;DHT22;38455;52.710;6.502;2022-11-03T05:43:58;10.60;99.90
52555;DHT22;38455;52.710;6.502;2022-11-03T05:46:31;10.60;99.90
52555;DHT22;38455;52.710;6.502;2022-11-03T05:49:01;10.60;99.90
52555;DHT22;38455;52.710;6.502;2022-11-03T05:51:32;10.60;99.90
52555;DHT22;38455;52.710;6.502;2022-11-03T05:54:01;10.50;99.90
52555;DHT22;38455;52.710;6.502;2022-11-03T05:56:27;10.50;99.90
52555;DHT22;38455;52.710;6.502;2022-11-03T05:58:54;10.50;99.90
52555;DHT22;38455;52.710;6.502;2022-11-03T06:01:28;10.50;99.90
52555;DHT22;38455;52.710;6.502;2022-11-03T06:03:55;10.50;99.90
52555;DHT22;38455;52.710;6.502;2022-11-03T06:06:23;10.50;99.90
52555;DHT22;38455;52.710;6.502;2022-11-03T06:08:49;10.40;99.90
52555;DHT22;38455;52.710;6.502;2022-11-03T06:11:27;10.50;99.90
52555;DHT22;38455;52.710;6.502;2022-11-03T06:13:57;10.40;99.90
52555;DHT22;38455;52.710;6.502;2022-11-03T06:16:41;10.50;99.90
52555;DHT22;38455;52.710;6.502;2022-11-03T06:19:29;10.40;99.90
52555;DHT22;38455;52.710;6.502;2022-11-03T06:22:10;10.50;99.90
52555;DHT22;38455;52.710;6.502;2022-11-03T06:24:36;10.50;99.90
52555;DHT22;38455;52.710;6.502;2022-11-03T06:27:02;10.50;99.90
52555;DHT22;38455;52.710;6.502;2022-11-03T06:29:30;10.50;99.90
52555;DHT22;38455;52.710;6.502;2022-11-03T06:31:56;10.50;99.90
52555;DHT22;38455;52.710;6.502;2022-11-03T06:34:49;10.50;99.90
52555;DHT22;38455;52.710;6.502;2022-11-03T06:37:32;10.50;99.90
52555;DHT22;38455;52.710;6.502;2022-11-03T06:42:39;10.50;99.90
52555;DHT22;38455;52.710;6.502;2022-11-03T06:45:17;10.50;99.90
52555;DHT22;38455;52.710;6.502;2022-11-03T06:47:43;10.50;99.90
52555;DHT22;38455;52.710;6.502;2022-11-03T06:50:35;10.60;99.90
52555;DHT22;38455;52.710;6.502;2022-11-03T06:53:02;10.50;99.90
52555;DHT22;38455;52.710;6.502;2022-11-03T06:55:30;10.60;99.90
52555;DHT22;38455;52.710;6.502;2022-11-03T06:58:18;10.70;99.90
52555;DHT22;38455;52.710;6.502;2022-11-03T07:00:47;10.70;99.90
52555;DHT22;38455;52.710;6.502;2022-11-03T07:03:20;10.80;99.90
52555;DHT22;38455;52.710;6.502;2022-11-03T07:05:47;10.80;99.90
52555;DHT22;38455;52.710;6.502;2022-11-03T07:11:00;10.90;99.90
52555;DHT22;38455;52.710;6.502;2022-11-03T07:13:26;10.90;99.90
52555;DHT22;38455;52.710;6.502;2022-11-03T07:15:52;11.00;99.90
52555;DHT22;38455;52.710;6.502;2022-11-03T07:18:24;11.00;99.90
52555;DHT22;38455;52.710;6.502;2022-11-03T07:20:52;11.10;99.90
52555;DHT22;38455;52.710;6.502;2022-11-03T07:23:22;11.10;99.90
52555;DHT22;38455;52.710;6.502;2022-11-03T07:25:54;11.10;99.90
52555;DHT22;38455;52.710;6.502;2022-11-03T07:28:35;11.20;99.90
52555;DHT22;38455;52.710;6.502;2022-11-03T07:31:11;11.30;99.90
52555;DHT22;38455;52.710;6.502;2022-11-03T07:33:38;11.40;99.90
52555;DHT22;38455;52.710;6.502;2022-11-03T07:36:05;11.40;99.90
52555;DHT22;38455;52.710;6.502;2022-11-03T07:38:33;11.40;99.90
52555;DHT22;38455;52.710;6.502;2022-11-03T07:40:59;11.50;99.90
52555;DHT22;38455;52.710;6.502;2022-11-03T07:43:33;11.60;99.90
52555;DHT22;38455;52.710;6.502;2022-11-03T07:46:01;11.60;99.90
52555;DHT22;38455;52.710;6.502;2022-11-03T07:51:21;11.70;99.90
52555;DHT22;38455;52.710;6.502;2022-11-03T07:53:51;11.80;99.90
52555;DHT22;38455;52.710;6.502;2022-11-03T07:56:24;11.80;99.90
52555;DHT22;38455;52.710;6.502;2022-11-03T08:01:24;11.90;99.90
52555;DHT22;38455;52.710;6.502;2022-11-03T08:03:50;12.00;99.90
52555;DHT22;38455;52.710;6.502;2022-11-03T08:06:17;12.10;99.90
52555;DHT22;38455;52.710;6.502;2022-11-03T08:08:42;12.20;99.90
52555;DHT22;38455;52.710;6.502;2022-11-03T08:11:08;12.30;99.90
52555;DHT22;38455;52.710;6.502;2022-11-03T08:13:34;12.30;99.90
52555;DHT22;38455;52.710;6.502;2022-11-03T08:15:59;12.40;99.90
52555;DHT22;38455;52.710;6.502;2022-11-03T08:18:25;12.50;99.90
52555;DHT22;38455;52.710;6.502;2022-11-03T08:20:51;12.60;99.90
52555;DHT22;38455;52.710;6.502;2022-11-03T08:23:16;12.70;99.90
52555;DHT22;38455;52.710;6.502;2022-11-03T08:25:43;12.70;99.90
52555;DHT22;38455;52.710;6.502;2022-11-03T08:28:08;12.80;99.90
52555;DHT22;38455;52.710;6.502;2022-11-03T08:30:34;12.80;99.90
52555;DHT22;38455;52.710;6.502;2022-11-03T08:33:00;12.80;99.90
52555;DHT22;38455;52.710;6.502;2022-11-03T08:35:26;12.80;99.90
52555;DHT22;38455;52.710;6.502;2022-11-03T08:37:52;12.80;99.90
52555;DHT22;38455;52.710;6.502;2022-11-03T08:40:17;12.80;99.90
52555;DHT22;38455;52.710;6.502;2022-11-03T08:42:43;12.90;99.90
52555;DHT22;38455;52.710;6.502;2022-11-03T08:45:09;12.80;99.90
52555;DHT22;38455;52.710;6.502;2022-11-03T08:47:36;12.90;99.90
52555;DHT22;38455;52.710;6.502;2022-11-03T08:50:02;12.90;99.90
52555;DHT22;38455;52.710;6.502;2022-11-03T08:52:28;12.90;99.90
52555;DHT22;38455;52.710;6.502;2022-11-03T08:54:53;12.90;99.90
52555;DHT22;38455;52.710;6.502;2022-11-03T08:57:19;13.00;99.90
52555;DHT22;38455;52.710;6.502;2022-11-03T08:59:45;13.00;99.90
52555;DHT22;38455;52.710;6.502;2022-11-03T09:02:10;13.10;99.90
52555;DHT22;38455;52.710;6.502;2022-11-03T09:04:36;13.00;99.90
52555;DHT22;38455;52.710;6.502;2022-11-03T09:07:02;13.20;99.90
52555;DHT22;38455;52.710;6.502;2022-11-03T09:09:28;13.30;99.90
52555;DHT22;38455;52.710;6.502;2022-11-03T09:11:54;13.40;99.90
52555;DHT22;38455;52.710;6.502;2022-11-03T09:14:19;13.50;99.90
52555;DHT22;38455;52.710;6.502;2022-11-03T09:16:45;13.60;99.90
52555;DHT22;38455;52.710;6.502;2022-11-03T09:19:11;13.80;99.90
52555;DHT22;38455;52.710;6.502;2022-11-03T09:21:36;13.90;99.90
52555;DHT22;38455;52.710;6.502;2022-11-03T09:24:02;14.20;99.90
52555;DHT22;38455;52.710;6.502;2022-11-03T09:26:28;14.50;99.90
52555;DHT22;38455;52.710;6.502;2022-11-03T09:28:53;15.00;99.90
52555;DHT22;38455;52.710;6.502;2022-11-03T09:31:19;15.30;99.90
52555;DHT22;38455;52.710;6.502;2022-11-03T09:33:45;15.90;99.90
52555;DHT22;38455;52.710;6.502;2022-11-03T09:36:10;16.30;99.90
52555;DHT22;38455;52.710;6.502;2022-11-03T09:38:37;16.50;99.90
52555;DHT22;38455;52.710;6.502;2022-11-03T09:41:03;16.60;99.90
52555;DHT22;38455;52.710;6.502;2022-11-03T09:43:31;16.40;99.90
52555;DHT22;38455;52.710;6.502;2022-11-03T09:45:57;16.10;99.90
52555;DHT22;38455;52.710;6.502;2022-11-03T09:48:23;15.80;99.90
52555;DHT22;38455;52.710;6.502;2022-11-03T09:50:52;15.60;99.90
52555;DHT22;38455;52.710;6.502;2022-11-03T09:53:18;15.40;99.90
52555;DHT22;38455;52.710;6.502;2022-11-03T09:55:45;15.30;99.90
52555;DHT22;38455;52.710;6.502;2022-11-03T09:58:15;15.30;99.90
52555;DHT22;38455;52.710;6.502;2022-11-03T10:00:42;15.30;99.90
52555;DHT22;38455;52.710;6.502;2022-11-03T10:03:12;15.40;99.90
52555;DHT22;38455;52.710;6.502;2022-11-03T10:05:42;15.60;99.90
52555;DHT22;38455;52.710;6.502;2022-11-03T10:08:25;15.60;99.90
52555;DHT22;38455;52.710;6.502;2022-11-03T10:10:51;15.40;99.90
52555;DHT22;38455;52.710;6.502;2022-11-03T10:15:54;15.30;99.90
52555;DHT22;38455;52.710;6.502;2022-11-03T10:18:20;15.30;99.90
52555;DHT22;38455;52.710;6.502;2022-11-03T10:20:46;15.30;99.90
52555;DHT22;38455;52.710;6.502;2022-11-03T10:23:11;15.30;99.90
52555;DHT22;38455;52.710;6.502;2022-11-03T10:25:39;15.40;99.90
52555;DHT22;38455;52.710;6.502;2022-11-03T10:33:35;15.60;99.90
52555;DHT22;38455;52.710;6.502;2022-11-03T10:36:04;15.50;99.90
52555;DHT22;38455;52.710;6.502;2022-11-03T10:38:45;15.40;99.90
52555;DHT22;38455;52.710;6.502;2022-11-03T10:43:42;15.40;99.90
52555;DHT22;38455;52.710;6.502;2022-11-03T10:46:18;15.50;99.90
52555;DHT22;38455;52.710;6.502;2022-11-03T10:48:48;16.00;99.90
52555;DHT22;38455;52.710;6.502;2022-11-03T10:51:25;16.50;99.90
52555;DHT22;38455;52.710;6.502;2022-11-03T10:53:51;16.60;99.90
52555;DHT22;38455;52.710;6.502;2022-11-03T10:56:16;16.90;99.90
52555;DHT22;38455;52.710;6.502;2022-11-03T10:58:42;16.90;99.90
52555;DHT22;38455;52.710;6.502;2022-11-03T11:01:09;17.00;99.90
52555;DHT22;38455;52.710;6.502;2022-11-03T11:03:40;17.30;99.90
52555;DHT22;38455;52.710;6.502;2022-11-03T11:06:20;17.80;99.90
52555;DHT22;38455;52.710;6.502;2022-11-03T11:08:48;18.10;99.90
52555;DHT22;38455;52.710;6.502;2022-11-03T11:11:16;18.20;99.90
52555;DHT22;38455;52.710;6.502;2022-11-03T11:13:42;18.00;99.90
52555;DHT22;38455;52.710;6.502;2022-11-03T11:19:24;17.80;99.90
52555;DHT22;38455;52.710;6.502;2022-11-03T11:30:01;16.70;99.90
52555;DHT22;38455;52.710;6.502;2022-11-03T11:35:08;16.40;99.90
52555;DHT22;38455;52.710;6.502;2022-11-03T11:37:36;16.20;99.90
52555;DHT22;38455;52.710;6.502;2022-11-03T11:40:27;16.10;99.90
52555;DHT22;38455;52.710;6.502;2022-11-03T11:48:35;15.90;99.90
52555;DHT22;38455;52.710;6.502;2022-11-03T11:51:01;15.90;99.90
52555;DHT22;38455;52.710;6.502;2022-11-03T11:53:36;15.80;99.90
52555;DHT22;38455;52.710;6.502;2022-11-03T11:56:02;15.80;99.90
52555;DHT22;38455;52.710;6.502;2022-11-03T11:58:45;15.70;99.90
52555;DHT22;38455;52.710;6.502;2022-11-03T12:03:46;15.70;99.90
52555;DHT22;38455;52.710;6.502;2022-11-03T12:06:13;15.70;99.90
52555;DHT22;38455;52.710;6.502;2022-11-03T12:08:39;15.70;99.90
52555;DHT22;38455;52.710;6.502;2022-11-03T12:11:07;15.70;99.90
52555;DHT22;38455;52.710;6.502;2022-11-03T12:13:50;15.70;99.90
52555;DHT22;38455;52.710;6.502;2022-11-03T12:16:35;15.70;99.90
52555;DHT22;38455;52.710;6.502;2022-11-03T12:19:37;15.60;99.90
52555;DHT22;38455;52.710;6.502;2022-11-03T12:22:08;15.60;99.90
52555;DHT22;38455;52.710;6.502;2022-11-03T12:27:14;15.60;99.90
52555;DHT22;38455;52.710;6.502;2022-11-03T12:29:41;15.60;99.90
52555;DHT22;38455;52.710;6.502;2022-11-03T12:32:06;15.70;99.90
52555;DHT22;38455;52.710;6.502;2022-11-03T12:34:32;15.90;99.90
52555;DHT22;38455;52.710;6.502;2022-11-03T12:36:58;16.00;99.90
52555;DHT22;38455;52.710;6.502;2022-11-03T12:39:23;16.10;99.90
52555;DHT22;38455;52.710;6.502;2022-11-03T12:41:49;16.30;99.90
52555;DHT22;38455;52.710;6.502;2022-11-03T12:44:15;16.40;99.90
52555;DHT22;38455;52.710;6.502;2022-11-03T12:46:41;16.50;99.90
52555;DHT22;38455;52.710;6.502;2022-11-03T12:49:06;16.60;99.90
52555;DHT22;38455;52.710;6.502;2022-11-03T12:51:33;16.60;99.90
52555;DHT22;38455;52.710;6.502;2022-11-03T12:53:58;16.60;99.90
52555;DHT22;38455;52.710;6.502;2022-11-03T12:56:24;16.60;99.90
52555;DHT22;38455;52.710;6.502;2022-11-03T12:58:50;16.50;99.90
52555;DHT22;38455;52.710;6.502;2022-11-03T13:01:15;16.50;99.90
52555;DHT22;38455;52.710;6.502;2022-11-03T13:03:41;16.40;99.90
52555;DHT22;38455;52.710;6.502;2022-11-03T13:06:09;16.40;99.90
52555;DHT22;38455;52.710;6.502;2022-11-03T13:08:36;16.30;99.90
52555;DHT22;38455;52.710;6.502;2022-11-03T13:11:02;16.30;99.90
52555;DHT22;38455;52.710;6.502;2022-11-03T13:13:28;16.30;99.90
52555;DHT22;38455;52.710;6.502;2022-11-03T13:15:53;16.20;99.90
52555;DHT22;38455;52.710;6.502;2022-11-03T13:18:20;16.20;99.90
52555;DHT22;38455;52.710;6.502;2022-11-03T13:20:47;16.20;99.90
52555;DHT22;38455;52.710;6.502;2022-11-03T13:23:12;16.10;99.90
52555;DHT22;38455;52.710;6.502;2022-11-03T13:25:38;16.10;99.90
52555;DHT22;38455;52.710;6.502;2022-11-03T13:28:04;16.00;99.90
52555;DHT22;38455;52.710;6.502;2022-11-03T13:30:31;16.00;99.90
52555;DHT22;38455;52.710;6.502;2022-11-03T13:32:58;16.00;99.90
52555;DHT22;38455;52.710;6.502;2022-11-03T13:35:23;16.00;99.90
52555;DHT22;38455;52.710;6.502;2022-11-03T13:37:49;15.90;99.90
52555;DHT22;38455;52.710;6.502;2022-11-03T13:40:15;15.80;99.90
52555;DHT22;38455;52.710;6.502;2022-11-03T13:42:41;15.80;99.90
52555;DHT22;38455;52.710;6.502;2022-11-03T13:45:08;15.80;99.90
52555;DHT22;38455;52.710;6.502;2022-11-03T13:47:34;15.70;99.90
52555;DHT22;38455;52.710;6.502;2022-11-03T13:50:00;15.70;99.90
52555;DHT22;38455;52.710;6.502;2022-11-03T13:52:26;15.60;99.90
52555;DHT22;38455;52.710;6.502;2022-11-03T13:54:52;15.60;99.90
52555;DHT22;38455;52.710;6.502;2022-11-03T13:57:19;15.60;99.90
52555;DHT22;38455;52.710;6.502;2022-11-03T13:59:45;15.60;99.90
52555;DHT22;38455;52.710;6.502;2022-11-03T14:02:10;15.60;99.90
52555;DHT22;38455;52.710;6.502;2022-11-03T14:04:37;15.60;99.90
52555;DHT22;38455;52.710;6.502;2022-11-03T14:07:04;15.60;99.90
52555;DHT22;38455;52.710;6.502;2022-11-03T14:09:30;15.70;99.90
52555;DHT22;38455;52.710;6.502;2022-11-03T14:11:56;15.70;99.90
52555;DHT22;38455;52.710;6.502;2022-11-03T14:14:40;15.70;99.90
52555;DHT22;38455;52.710;6.502;2022-11-03T14:17:06;15.80;99.90
52555;DHT22;38455;52.710;6.502;2022-11-03T14:19:32;15.80;99.90
52555;DHT22;38455;52.710;6.502;2022-11-03T14:21:58;15.90;99.90
52555;DHT22;38455;52.710;6.502;2022-11-03T14:24:24;15.90;99.90
52555;DHT22;38455;52.710;6.502;2022-11-03T14:26:49;15.90;99.90
52555;DHT22;38455;52.710;6.502;2022-11-03T14:29:15;15.90;99.90
52555;DHT22;38455;52.710;6.502;2022-11-03T14:31:41;16.00;99.90
52555;DHT22;38455;52.710;6.502;2022-11-03T14:34:06;15.90;99.90
52555;DHT22;38455;52.710;6.502;2022-11-03T14:36:32;15.90;99.90
52555;DHT22;38455;52.710;6.502;2022-11-03T14:38:58;15.90;99.90
52555;DHT22;38455;52.710;6.502;2022-11-03T14:41:23;15.80;99.90
52555;DHT22;38455;52.710;6.502;2022-11-03T14:44:07;15.80;99.90
52555;DHT22;38455;52.710;6.502;2022-11-03T14:46:33;15.70;99.90
52555;DHT22;38455;52.710;6.502;2022-11-03T14:48:59;15.70;99.90
52555;DHT22;38455;52.710;6.502;2022-11-03T14:51:26;15.70;99.90
52555;DHT22;38455;52.710;6.502;2022-11-03T14:53:52;15.60;99.90
52555;DHT22;38455;52.710;6.502;2022-11-03T14:56:18;15.50;99.90
52555;DHT22;38455;52.710;6.502;2022-11-03T14:58:43;15.50;99.90
52555;DHT22;38455;52.710;6.502;2022-11-03T15:01:09;15.40;99.90
52555;DHT22;38455;52.710;6.502;2022-11-03T15:03:35;15.40;99.90
52555;DHT22;38455;52.710;6.502;2022-11-03T15:06:00;15.40;99.90
52555;DHT22;38455;52.710;6.502;2022-11-03T15:08:26;15.30;99.90
52555;DHT22;38455;52.710;6.502;2022-11-03T15:10:54;15.40;99.90
52555;DHT22;38455;52.710;6.502;2022-11-03T15:13:19;15.30;99.90
52555;DHT22;38455;52.710;6.502;2022-11-03T15:15:45;15.30;99.90
52555;DHT22;38455;52.710;6.502;2022-11-03T15:18:11;15.30;99.90
52555;DHT22;38455;52.710;6.502;2022-11-03T15:20:36;15.30;99.90
52555;DHT22;38455;52.710;6.502;2022-11-03T15:23:06;15.20;99.90
52555;DHT22;38455;52.710;6.502;2022-11-03T15:25:32;15.20;99.90
52555;DHT22;38455;52.710;6.502;2022-11-03T15:27:58;15.10;99.90
52555;DHT22;38455;52.710;6.502;2022-11-03T15:30:25;15.10;99.90
52555;DHT22;38455;52.710;6.502;2022-11-03T15:32:51;15.10;99.90
52555;DHT22;38455;52.710;6.502;2022-11-03T15:35:17;15.10;99.90
52555;DHT22;38455;52.710;6.502;2022-11-03T15:37:43;15.10;99.90
52555;DHT22;38455;52.710;6.502;2022-11-03T15:40:12;15.00;99.90
52555;DHT22;38455;52.710;6.502;2022-11-03T15:42:38;14.90;99.90
52555;DHT22;38455;52.710;6.502;2022-11-03T15:45:06;14.90;99.90
52555;DHT22;38455;52.710;6.502;2022-11-03T15:47:32;14.90;99.90
52555;DHT22;38455;52.710;6.502;2022-11-03T15:49:58;14.80;99.90
52555;DHT22;38455;52.710;6.502;2022-11-03T15:52:24;14.80;99.90
52555;DHT22;38455;52.710;6.502;2022-11-03T15:54:50;14.70;99.90
52555;DHT22;38455;52.710;6.502;2022-11-03T15:57:15;14.70;99.90
52555;DHT22;38455;52.710;6.502;2022-11-03T15:59:41;14.70;99.90
52555;DHT22;38455;52.710;6.502;2022-11-03T16:02:07;14.70;99.90
52555;DHT22;38455;52.710;6.502;2022-11-03T16:04:33;14.60;99.90
52555;DHT22;38455;52.710;6.502;2022-11-03T16:06:59;14.60;99.90
52555;DHT22;38455;52.710;6.502;2022-11-03T16:09:25;14.60;99.90
52555;DHT22;38455;52.710;6.502;2022-11-03T16:11:50;14.60;99.90
52555;DHT22;38455;52.710;6.502;2022-11-03T16:14:16;14.60;99.90
52555;DHT22;38455;52.710;6.502;2022-11-03T16:16:42;14.70;99.90
52555;DHT22;38455;52.710;6.502;2022-11-03T16:19:08;14.80;99.90
52555;DHT22;38455;52.710;6.502;2022-11-03T16:21:35;14.70;99.90
52555;DHT22;38455;52.710;6.502;2022-11-03T16:24:01;14.70;99.90
52555;DHT22;38455;52.710;6.502;2022-11-03T16:26:27;14.70;99.90
52555;DHT22;38455;52.710;6.502;2022-11-03T16:28:52;14.60;99.90
52555;DHT22;38455;52.710;6.502;2022-11-03T16:31:18;14.60;99.90
52555;DHT22;38455;52.710;6.502;2022-11-03T16:33:43;14.50;99.90
52555;DHT22;38455;52.710;6.502;2022-11-03T16:36:09;14.50;99.90
52555;DHT22;38455;52.710;6.502;2022-11-03T16:38:35;14.50;99.90
52555;DHT22;38455;52.710;6.502;2022-11-03T16:41:00;14.40;99.90
52555;DHT22;38455;52.710;6.502;2022-11-03T16:43:26;14.30;99.90
52555;DHT22;38455;52.710;6.502;2022-11-03T16:45:51;14.30;99.90
52555;DHT22;38455;52.710;6.502;2022-11-03T16:48:17;14.20;99.90
52555;DHT22;38455;52.710;6.502;2022-11-03T16:50:43;14.10;99.90
52555;DHT22;38455;52.710;6.502;2022-11-03T16:53:08;14.10;99.90
52555;DHT22;38455;52.710;6.502;2022-11-03T16:55:34;13.90;99.90
52555;DHT22;38455;52.710;6.502;2022-11-03T16:58:00;13.90;99.90
52555;DHT22;38455;52.710;6.502;2022-11-03T17:00:25;13.70;99.90
52555;DHT22;38455;52.710;6.502;2022-11-03T17:02:51;13.70;99.90